sensor_id;sensor_type;location;lat;lon;timestamp;P1;durP1;ratioP1;P2;durP2;ratioP2
20179;SDS011;10249;48.900;9.090;2023-08-06T00:00:54;3.17;;;3.07;;
20179;SDS011;10249;48.900;9.090;2023-08-06T00:03:21;3.10;;;3.00;;
20179;SDS011;10249;48.900;9.090;2023-08-06T00:05:48;3.20;;;3.10;;
20179;SDS011;10249;48.900;9.090;2023-08-06T00:08:15;3.10;;;3.00;;
20179;SDS011;10249;48.900;9.090;2023-08-06T00:10:42;2.90;;;2.80;;
20179;SDS011;10249;48.900;9.090;2023-08-06T00:13:09;3.00;;;2.90;;
20179;SDS011;10249;48.900;9.090;2023-08-06T00:15:36;2.93;;;2.83;;
20179;SDS011;10249;48.900;9.090;2023-08-06T00:18:04;3.10;;;3.00;;
20179;SDS011;10249;48.900;9.090;2023-08-06T00:20:31;2.90;;;2.80;;
20179;SDS011;10249;48.900;9.090;2023-08-06T00:22:58;3.00;;;2.90;;
20179;SDS011;10249;48.900;9.090;2023-08-06T00:25:26;3.00;;;2.90;;
20179;SDS011;10249;48.900;9.090;2023-08-06T00:27:53;3.00;;;2.90;;
20179;SDS011;10249;48.900;9.090;2023-08-06T00:30:21;2.90;;;2.80;;
20179;SDS011;10249;48.900;9.090;2023-08-06T00:32:48;3.00;;;2.90;;
20179;SDS011;10249;48.900;9.090;2023-08-06T00:35:16;2.90;;;2.80;;
20179;SDS011;10249;48.900;9.090;2023-08-06T00:37:43;2.90;;;2.80;;
20179;SDS011;10249;48.900;9.090;2023-08-06T00:40:11;3.10;;;3.00;;
20179;SDS011;10249;48.900;9.090;2023-08-06T00:42:38;2.93;;;2.83;;
20179;SDS011;10249;48.900;9.090;2023-08-06T00:45:05;3.00;;;2.90;;
20179;SDS011;10249;48.900;9.090;2023-08-06T00:47:32;3.00;;;2.90;;
20179;SDS011;10249;48.900;9.090;2023-08-06T00:49:59;3.00;;;2.90;;
20179;SDS011;10249;48.900;9.090;2023-08-06T00:52:28;2.90;;;2.80;;
20179;SDS011;10249;48.900;9.090;2023-08-06T00:54:55;2.80;;;2.70;;
20179;SDS011;10249;48.900;9.090;2023-08-06T00:57:22;2.90;;;2.80;;
20179;SDS011;10249;48.900;9.090;2023-08-06T00:59:51;2.90;;;2.80;;
20179;SDS011;10249;48.900;9.090;2023-08-06T01:02:19;2.60;;;2.50;;
20179;SDS011;10249;48.900;9.090;2023-08-06T01:04:46;2.70;;;2.60;;
20179;SDS011;10249;48.900;9.090;2023-08-06T01:07:15;2.67;;;2.57;;
20179;SDS011;10249;48.900;9.090;2023-08-06T01:09:50;2.80;;;2.70;;
20179;SDS011;10249;48.900;9.090;2023-08-06T01:12:22;2.90;;;2.80;;
20179;SDS011;10249;48.900;9.090;2023-08-06T01:14:53;2.80;;;2.70;;
20179;SDS011;10249;48.900;9.090;2023-08-06T01:17:22;2.80;;;2.70;;
20179;SDS011;10249;48.900;9.090;2023-08-06T01:19:51;2.70;;;2.60;;
20179;SDS011;10249;48.900;9.090;2023-08-06T01:22:20;2.80;;;2.70;;
20179;SDS011;10249;48.900;9.090;2023-08-06T01:24:47;2.80;;;2.70;;
20179;SDS011;10249;48.900;9.090;2023-08-06T01:27:17;2.60;;;2.50;;
20179;SDS011;10249;48.900;9.090;2023-08-06T01:29:51;2.90;;;2.80;;
20179;SDS011;10249;48.900;9.090;2023-08-06T01:32:23;2.80;;;2.70;;
20179;SDS011;10249;48.900;9.090;2023-08-06T01:34:51;3.13;;;3.03;;
20179;SDS011;10249;48.900;9.090;2023-08-06T01:37:20;3.10;;;3.00;;
20179;SDS011;10249;48.900;9.090;2023-08-06T01:39:47;3.13;;;3.03;;
20179;SDS011;10249;48.900;9.090;2023-08-06T01:42:14;3.23;;;3.13;;
20179;SDS011;10249;48.900;9.090;2023-08-06T01:44:41;3.30;;;3.20;;
20179;SDS011;10249;48.900;9.090;2023-08-06T01:47:08;3.17;;;3.07;;
20179;SDS011;10249;48.900;9.090;2023-08-06T01:49:35;3.23;;;3.13;;
20179;SDS011;10249;48.900;9.090;2023-08-06T01:52:02;3.30;;;3.20;;
20179;SDS011;10249;48.900;9.090;2023-08-06T01:54:31;3.40;;;3.30;;
20179;SDS011;10249;48.900;9.090;2023-08-06T01:56:58;3.53;;;3.43;;
20179;SDS011;10249;48.900;9.090;2023-08-06T01:59:25;3.50;;;3.40;;
20179;SDS011;10249;48.900;9.090;2023-08-06T02:01:52;3.50;;;3.40;;
20179;SDS011;10249;48.900;9.090;2023-08-06T02:04:19;3.50;;;3.40;;
20179;SDS011;10249;48.900;9.090;2023-08-06T02:06:46;3.60;;;3.50;;
20179;SDS011;10249;48.900;9.090;2023-08-06T02:09:13;3.40;;;3.30;;
20179;SDS011;10249;48.900;9.090;2023-08-06T02:11:42;3.43;;;3.33;;
20179;SDS011;10249;48.900;9.090;2023-08-06T02:14:09;3.53;;;3.43;;
20179;SDS011;10249;48.900;9.090;2023-08-06T02:16:36;3.50;;;3.40;;
20179;SDS011;10249;48.900;9.090;2023-08-06T02:19:04;3.50;;;3.40;;
20179;SDS011;10249;48.900;9.090;2023-08-06T02:21:31;3.50;;;3.40;;
20179;SDS011;10249;48.900;9.090;2023-08-06T02:23:58;3.13;;;3.03;;
20179;SDS011;10249;48.900;9.090;2023-08-06T02:26:25;3.60;;;3.50;;
20179;SDS011;10249;48.900;9.090;2023-08-06T02:28:54;3.40;;;3.30;;
20179;SDS011;10249;48.900;9.090;2023-08-06T02:31:21;3.60;;;3.50;;
20179;SDS011;10249;48.900;9.090;2023-08-06T02:33:48;3.70;;;3.60;;
20179;SDS011;10249;48.900;9.090;2023-08-06T02:36:15;3.73;;;3.63;;
20179;SDS011;10249;48.900;9.090;2023-08-06T02:38:42;3.43;;;3.33;;
20179;SDS011;10249;48.900;9.090;2023-08-06T02:41:09;3.40;;;3.30;;
20179;SDS011;10249;48.900;9.090;2023-08-06T02:43:36;3.30;;;3.20;;
20179;SDS011;10249;48.900;9.090;2023-08-06T02:46:05;3.30;;;3.20;;
20179;SDS011;10249;48.900;9.090;2023-08-06T02:48:32;3.60;;;3.50;;
20179;SDS011;10249;48.900;9.090;2023-08-06T02:50:59;3.30;;;3.20;;
20179;SDS011;10249;48.900;9.090;2023-08-06T02:53:26;3.30;;;3.20;;
20179;SDS011;10249;48.900;9.090;2023-08-06T02:55:53;3.30;;;3.20;;
20179;SDS011;10249;48.900;9.090;2023-08-06T02:58:20;3.30;;;3.20;;
20179;SDS011;10249;48.900;9.090;2023-08-06T03:00:58;3.37;;;3.27;;
20179;SDS011;10249;48.900;9.090;2023-08-06T03:03:26;3.30;;;3.20;;
20179;SDS011;10249;48.900;9.090;2023-08-06T03:05:54;3.20;;;3.10;;
20179;SDS011;10249;48.900;9.090;2023-08-06T03:08:21;3.40;;;3.30;;
20179;SDS011;10249;48.900;9.090;2023-08-06T03:10:48;3.60;;;3.50;;
20179;SDS011;10249;48.900;9.090;2023-08-06T03:13:15;3.50;;;3.40;;
20179;SDS011;10249;48.900;9.090;2023-08-06T03:15:43;3.53;;;3.43;;
20179;SDS011;10249;48.900;9.090;2023-08-06T03:18:10;3.67;;;3.57;;
20179;SDS011;10249;48.900;9.090;2023-08-06T03:20:38;3.40;;;3.30;;
20179;SDS011;10249;48.900;9.090;2023-08-06T03:23:05;3.60;;;3.50;;
20179;SDS011;10249;48.900;9.090;2023-08-06T03:25:34;3.60;;;3.50;;
20179;SDS011;10249;48.900;9.090;2023-08-06T03:28:02;3.97;;;3.87;;
20179;SDS011;10249;48.900;9.090;2023-08-06T03:30:29;3.67;;;3.57;;
20179;SDS011;10249;48.900;9.090;2023-08-06T03:32:56;4.13;;;4.03;;
20179;SDS011;10249;48.900;9.090;2023-08-06T03:35:23;4.30;;;4.20;;
20179;SDS011;10249;48.900;9.090;2023-08-06T03:37:51;4.00;;;3.90;;
20179;SDS011;10249;48.900;9.090;2023-08-06T03:40:18;3.97;;;3.87;;
20179;SDS011;10249;48.900;9.090;2023-08-06T03:42:45;4.10;;;4.00;;
20179;SDS011;10249;48.900;9.090;2023-08-06T03:45:12;4.40;;;4.30;;
20179;SDS011;10249;48.900;9.090;2023-08-06T03:47:40;4.30;;;4.20;;
20179;SDS011;10249;48.900;9.090;2023-08-06T03:50:07;4.30;;;4.20;;
20179;SDS011;10249;48.900;9.090;2023-08-06T03:52:34;4.07;;;3.97;;
20179;SDS011;10249;48.900;9.090;2023-08-06T03:55:02;4.30;;;4.20;;
20179;SDS011;10249;48.900;9.090;2023-08-06T03:57:30;4.50;;;4.40;;
20179;SDS011;10249;48.900;9.090;2023-08-06T03:59:57;4.30;;;4.20;;
20179;SDS011;10249;48.900;9.090;2023-08-06T04:02:24;4.00;;;3.90;;
20179;SDS011;10249;48.900;9.090;2023-08-06T04:04:51;3.90;;;3.80;;
20179;SDS011;10249;48.900;9.090;2023-08-06T04:07:19;4.37;;;4.27;;
20179;SDS011;10249;48.900;9.090;2023-08-06T04:09:53;4.13;;;4.03;;
20179;SDS011;10249;48.900;9.090;2023-08-06T04:12:21;3.80;;;3.70;;
20179;SDS011;10249;48.900;9.090;2023-08-06T04:14:49;3.70;;;3.60;;
20179;SDS011;10249;48.900;9.090;2023-08-06T04:17:17;3.87;;;3.77;;
20179;SDS011;10249;48.900;9.090;2023-08-06T04:19:45;3.80;;;3.70;;
20179;SDS011;10249;48.900;9.090;2023-08-06T04:22:13;3.90;;;3.80;;
20179;SDS011;10249;48.900;9.090;2023-08-06T04:24:40;4.07;;;3.97;;
20179;SDS011;10249;48.900;9.090;2023-08-06T04:27:08;4.00;;;3.90;;
20179;SDS011;10249;48.900;9.090;2023-08-06T04:29:36;4.20;;;4.10;;
20179;SDS011;10249;48.900;9.090;2023-08-06T04:32:03;4.20;;;4.10;;
20179;SDS011;10249;48.900;9.090;2023-08-06T04:34:31;4.50;;;4.40;;
20179;SDS011;10249;48.900;9.090;2023-08-06T04:36:58;4.10;;;4.00;;
20179;SDS011;10249;48.900;9.090;2023-08-06T04:39:25;4.20;;;4.10;;
20179;SDS011;10249;48.900;9.090;2023-08-06T04:41:52;4.00;;;3.90;;
20179;SDS011;10249;48.900;9.090;2023-08-06T04:44:19;4.30;;;4.20;;
20179;SDS011;10249;48.900;9.090;2023-08-06T04:46:48;4.20;;;4.10;;
20179;SDS011;10249;48.900;9.090;2023-08-06T04:49:15;4.10;;;4.00;;
20179;SDS011;10249;48.900;9.090;2023-08-06T04:51:42;4.10;;;4.00;;
20179;SDS011;10249;48.900;9.090;2023-08-06T04:54:09;4.00;;;3.90;;
20179;SDS011;10249;48.900;9.090;2023-08-06T04:56:37;4.30;;;4.20;;
20179;SDS011;10249;48.900;9.090;2023-08-06T04:59:04;4.23;;;4.13;;
20179;SDS011;10249;48.900;9.090;2023-08-06T05:01:31;4.37;;;4.27;;
20179;SDS011;10249;48.900;9.090;2023-08-06T05:03:59;4.10;;;4.00;;
20179;SDS011;10249;48.900;9.090;2023-08-06T05:06:26;4.50;;;4.40;;
20179;SDS011;10249;48.900;9.090;2023-08-06T05:08:53;4.50;;;4.40;;
20179;SDS011;10249;48.900;9.090;2023-08-06T05:11:20;4.30;;;4.20;;
20179;SDS011;10249;48.900;9.090;2023-08-06T05:13:49;4.37;;;4.27;;
20179;SDS011;10249;48.900;9.090;2023-08-06T05:16:16;4.70;;;4.60;;
20179;SDS011;10249;48.900;9.090;2023-08-06T05:18:43;5.10;;;5.00;;
20179;SDS011;10249;48.900;9.090;2023-08-06T05:21:11;5.20;;;5.10;;
20179;SDS011;10249;48.900;9.090;2023-08-06T05:23:38;5.40;;;5.20;;
20179;SDS011;10249;48.900;9.090;2023-08-06T05:26:05;5.87;;;5.67;;
20179;SDS011;10249;48.900;9.090;2023-08-06T05:28:33;6.80;;;6.60;;
20179;SDS011;10249;48.900;9.090;2023-08-06T05:31:02;6.67;;;6.47;;
20179;SDS011;10249;48.900;9.090;2023-08-06T05:33:30;6.53;;;6.33;;
20179;SDS011;10249;48.900;9.090;2023-08-06T05:35:57;6.03;;;5.83;;
20179;SDS011;10249;48.900;9.090;2023-08-06T05:38:25;6.17;;;5.97;;
20179;SDS011;10249;48.900;9.090;2023-08-06T05:40:52;6.00;;;5.80;;
20179;SDS011;10249;48.900;9.090;2023-08-06T05:43:20;6.30;;;6.10;;
20179;SDS011;10249;48.900;9.090;2023-08-06T05:45:48;6.20;;;6.00;;
20179;SDS011;10249;48.900;9.090;2023-08-06T05:48:15;5.50;;;5.30;;
20179;SDS011;10249;48.900;9.090;2023-08-06T05:50:43;5.53;;;5.33;;
20179;SDS011;10249;48.900;9.090;2023-08-06T05:53:10;5.30;;;5.10;;
20179;SDS011;10249;48.900;9.090;2023-08-06T05:55:39;5.10;;;5.00;;
20179;SDS011;10249;48.900;9.090;2023-08-06T05:58:06;4.80;;;4.70;;
20179;SDS011;10249;48.900;9.090;2023-08-06T06:00:33;4.50;;;4.40;;
20179;SDS011;10249;48.900;9.090;2023-08-06T06:03:01;4.50;;;4.40;;
20179;SDS011;10249;48.900;9.090;2023-08-06T06:05:28;4.40;;;4.30;;
20179;SDS011;10249;48.900;9.090;2023-08-06T06:07:55;4.53;;;4.43;;
20179;SDS011;10249;48.900;9.090;2023-08-06T06:10:22;4.80;;;4.70;;
20179;SDS011;10249;48.900;9.090;2023-08-06T06:12:50;5.00;;;4.90;;
20179;SDS011;10249;48.900;9.090;2023-08-06T06:15:17;5.40;;;5.20;;
20179;SDS011;10249;48.900;9.090;2023-08-06T06:17:44;5.40;;;5.20;;
20179;SDS011;10249;48.900;9.090;2023-08-06T06:20:11;4.80;;;4.70;;
20179;SDS011;10249;48.900;9.090;2023-08-06T06:22:38;4.70;;;4.60;;
20179;SDS011;10249;48.900;9.090;2023-08-06T06:25:06;4.90;;;4.80;;
20179;SDS011;10249;48.900;9.090;2023-08-06T06:27:33;4.60;;;4.50;;
20179;SDS011;10249;48.900;9.090;2023-08-06T06:30:01;4.60;;;4.50;;
20179;SDS011;10249;48.900;9.090;2023-08-06T06:32:29;4.20;;;4.10;;
20179;SDS011;10249;48.900;9.090;2023-08-06T06:34:56;4.37;;;4.27;;
20179;SDS011;10249;48.900;9.090;2023-08-06T06:37:23;4.27;;;4.17;;
20179;SDS011;10249;48.900;9.090;2023-08-06T06:39:50;4.57;;;4.47;;
20179;SDS011;10249;48.900;9.090;2023-08-06T06:42:17;4.60;;;4.50;;
20179;SDS011;10249;48.900;9.090;2023-08-06T06:44:44;4.10;;;4.00;;
20179;SDS011;10249;48.900;9.090;2023-08-06T06:47:13;4.20;;;4.10;;
20179;SDS011;10249;48.900;9.090;2023-08-06T06:49:40;3.83;;;3.73;;
20179;SDS011;10249;48.900;9.090;2023-08-06T06:52:07;3.93;;;3.83;;
20179;SDS011;10249;48.900;9.090;2023-08-06T06:54:34;3.83;;;3.73;;
20179;SDS011;10249;48.900;9.090;2023-08-06T06:57:01;3.83;;;3.73;;
20179;SDS011;10249;48.900;9.090;2023-08-06T06:59:28;3.77;;;3.67;;
20179;SDS011;10249;48.900;9.090;2023-08-06T07:01:55;3.80;;;3.70;;
20179;SDS011;10249;48.900;9.090;2023-08-06T07:04:24;3.77;;;3.67;;
20179;SDS011;10249;48.900;9.090;2023-08-06T07:06:51;4.20;;;4.10;;
20179;SDS011;10249;48.900;9.090;2023-08-06T07:09:18;4.10;;;4.00;;
20179;SDS011;10249;48.900;9.090;2023-08-06T07:11:45;4.27;;;4.17;;
20179;SDS011;10249;48.900;9.090;2023-08-06T07:14:12;4.30;;;4.20;;
20179;SDS011;10249;48.900;9.090;2023-08-06T07:16:39;4.50;;;4.40;;
20179;SDS011;10249;48.900;9.090;2023-08-06T07:19:07;4.50;;;4.40;;
20179;SDS011;10249;48.900;9.090;2023-08-06T07:21:35;4.50;;;4.40;;
20179;SDS011;10249;48.900;9.090;2023-08-06T07:24:02;4.60;;;4.50;;
20179;SDS011;10249;48.900;9.090;2023-08-06T07:26:29;4.40;;;4.30;;
20179;SDS011;10249;48.900;9.090;2023-08-06T07:28:56;4.80;;;4.70;;
20179;SDS011;10249;48.900;9.090;2023-08-06T07:31:23;4.97;;;4.87;;
20179;SDS011;10249;48.900;9.090;2023-08-06T07:33:50;4.90;;;4.80;;
20179;SDS011;10249;48.900;9.090;2023-08-06T07:36:17;4.90;;;4.80;;
20179;SDS011;10249;48.900;9.090;2023-08-06T07:38:46;4.90;;;4.80;;
20179;SDS011;10249;48.900;9.090;2023-08-06T07:41:16;4.70;;;4.60;;
20179;SDS011;10249;48.900;9.090;2023-08-06T07:43:43;4.57;;;4.47;;
20179;SDS011;10249;48.900;9.090;2023-08-06T07:46:10;4.97;;;4.87;;
20179;SDS011;10249;48.900;9.090;2023-08-06T07:48:38;5.50;;;5.30;;
20179;SDS011;10249;48.900;9.090;2023-08-06T07:51:05;5.40;;;5.20;;
20179;SDS011;10249;48.900;9.090;2023-08-06T07:53:32;5.37;;;5.17;;
20179;SDS011;10249;48.900;9.090;2023-08-06T07:56:01;5.17;;;5.07;;
20179;SDS011;10249;48.900;9.090;2023-08-06T07:58:28;4.87;;;4.77;;
20179;SDS011;10249;48.900;9.090;2023-08-06T08:00:56;4.93;;;4.83;;
20179;SDS011;10249;48.900;9.090;2023-08-06T08:03:23;4.90;;;4.80;;
20179;SDS011;10249;48.900;9.090;2023-08-06T08:05:53;4.83;;;4.73;;
20179;SDS011;10249;48.900;9.090;2023-08-06T08:08:22;5.00;;;4.90;;
20179;SDS011;10249;48.900;9.090;2023-08-06T08:10:49;5.00;;;4.90;;
20179;SDS011;10249;48.900;9.090;2023-08-06T08:13:18;5.00;;;4.90;;
20179;SDS011;10249;48.900;9.090;2023-08-06T08:15:45;5.07;;;4.97;;
20179;SDS011;10249;48.900;9.090;2023-08-06T08:18:12;5.80;;;5.60;;
20179;SDS011;10249;48.900;9.090;2023-08-06T08:20:39;6.17;;;5.97;;
20179;SDS011;10249;48.900;9.090;2023-08-06T08:23:06;6.70;;;6.50;;
20179;SDS011;10249;48.900;9.090;2023-08-06T08:25:33;6.77;;;6.57;;
20179;SDS011;10249;48.900;9.090;2023-08-06T08:28:00;7.03;;;6.83;;
20179;SDS011;10249;48.900;9.090;2023-08-06T08:30:28;7.47;;;7.27;;
20179;SDS011;10249;48.900;9.090;2023-08-06T08:32:55;7.53;;;7.33;;
20179;SDS011;10249;48.900;9.090;2023-08-06T08:35:22;8.53;;;8.23;;
20179;SDS011;10249;48.900;9.090;2023-08-06T08:37:49;8.40;;;8.10;;
20179;SDS011;10249;48.900;9.090;2023-08-06T08:40:17;8.00;;;7.80;;
20179;SDS011;10249;48.900;9.090;2023-08-06T08:42:44;8.40;;;8.10;;
20179;SDS011;10249;48.900;9.090;2023-08-06T08:45:12;7.90;;;7.70;;
20179;SDS011;10249;48.900;9.090;2023-08-06T08:47:41;8.60;;;8.30;;
20179;SDS011;10249;48.900;9.090;2023-08-06T08:50:08;8.73;;;8.43;;
20179;SDS011;10249;48.900;9.090;2023-08-06T08:52:36;8.27;;;7.97;;
20179;SDS011;10249;48.900;9.090;2023-08-06T08:55:05;7.63;;;7.43;;
20179;SDS011;10249;48.900;9.090;2023-08-06T08:57:33;7.30;;;7.10;;
20179;SDS011;10249;48.900;9.090;2023-08-06T09:00:00;6.97;;;6.77;;
20179;SDS011;10249;48.900;9.090;2023-08-06T09:02:28;6.40;;;6.20;;
20179;SDS011;10249;48.900;9.090;2023-08-06T09:04:57;6.60;;;6.40;;
20179;SDS011;10249;48.900;9.090;2023-08-06T09:07:27;6.13;;;5.93;;
20179;SDS011;10249;48.900;9.090;2023-08-06T09:09:56;6.50;;;6.30;;
20179;SDS011;10249;48.900;9.090;2023-08-06T09:12:23;6.57;;;6.37;;
20179;SDS011;10249;48.900;9.090;2023-08-06T09:14:50;6.40;;;6.20;;
20179;SDS011;10249;48.900;9.090;2023-08-06T09:17:17;5.80;;;5.60;;
20179;SDS011;10249;48.900;9.090;2023-08-06T09:19:45;6.03;;;5.83;;
20179;SDS011;10249;48.900;9.090;2023-08-06T09:22:14;7.30;;;7.10;;
20179;SDS011;10249;48.900;9.090;2023-08-06T09:24:42;6.67;;;6.47;;
20179;SDS011;10249;48.900;9.090;2023-08-06T09:27:12;7.60;;;7.40;;
20179;SDS011;10249;48.900;9.090;2023-08-06T09:29:40;7.67;;;7.47;;
20179;SDS011;10249;48.900;9.090;2023-08-06T09:32:08;7.23;;;7.03;;
20179;SDS011;10249;48.900;9.090;2023-08-06T09:34:35;7.60;;;7.40;;
20179;SDS011;10249;48.900;9.090;2023-08-06T09:37:02;7.40;;;7.20;;
20179;SDS011;10249;48.900;9.090;2023-08-06T09:39:31;8.00;;;7.80;;
20179;SDS011;10249;48.900;9.090;2023-08-06T09:41:59;7.17;;;6.97;;
20179;SDS011;10249;48.900;9.090;2023-08-06T09:44:27;7.30;;;7.10;;
20179;SDS011;10249;48.900;9.090;2023-08-06T09:46:55;7.10;;;6.90;;
20179;SDS011;10249;48.900;9.090;2023-08-06T09:49:24;6.40;;;6.20;;
20179;SDS011;10249;48.900;9.090;2023-08-06T09:51:52;6.23;;;6.03;;
20179;SDS011;10249;48.900;9.090;2023-08-06T09:54:21;6.10;;;5.90;;
20179;SDS011;10249;48.900;9.090;2023-08-06T09:56:50;6.03;;;5.83;;
20179;SDS011;10249;48.900;9.090;2023-08-06T09:59:17;5.90;;;5.70;;
20179;SDS011;10249;48.900;9.090;2023-08-06T10:01:45;6.27;;;6.07;;
20179;SDS011;10249;48.900;9.090;2023-08-06T10:04:13;6.30;;;6.10;;
20179;SDS011;10249;48.900;9.090;2023-08-06T10:06:42;6.17;;;5.97;;
20179;SDS011;10249;48.900;9.090;2023-08-06T10:09:10;6.90;;;6.70;;
20179;SDS011;10249;48.900;9.090;2023-08-06T10:11:37;7.17;;;6.97;;
20179;SDS011;10249;48.900;9.090;2023-08-06T10:14:06;6.77;;;6.57;;
20179;SDS011;10249;48.900;9.090;2023-08-06T10:16:35;7.40;;;7.20;;
20179;SDS011;10249;48.900;9.090;2023-08-06T10:19:03;9.00;;;8.70;;
20179;SDS011;10249;48.900;9.090;2023-08-06T10:21:31;8.67;;;8.37;;
20179;SDS011;10249;48.900;9.090;2023-08-06T10:23:58;8.70;;;8.40;;
20179;SDS011;10249;48.900;9.090;2023-08-06T10:26:26;8.80;;;8.50;;
20179;SDS011;10249;48.900;9.090;2023-08-06T10:28:54;8.67;;;8.37;;
20179;SDS011;10249;48.900;9.090;2023-08-06T10:34:05;8.93;;;8.63;;
20179;SDS011;10249;48.900;9.090;2023-08-06T10:36:32;8.80;;;8.50;;
20179;SDS011;10249;48.900;9.090;2023-08-06T10:38:59;9.03;;;8.73;;
20179;SDS011;10249;48.900;9.090;2023-08-06T10:41:28;8.90;;;8.60;;
20179;SDS011;10249;48.900;9.090;2023-08-06T10:44:04;8.00;;;7.80;;
20179;SDS011;10249;48.900;9.090;2023-08-06T10:46:33;8.37;;;8.07;;
20179;SDS011;10249;48.900;9.090;2023-08-06T10:49:00;8.80;;;8.50;;
20179;SDS011;10249;48.900;9.090;2023-08-06T10:51:30;8.50;;;8.20;;
20179;SDS011;10249;48.900;9.090;2023-08-06T10:53:57;8.80;;;8.50;;
20179;SDS011;10249;48.900;9.090;2023-08-06T10:56:24;8.00;;;7.80;;
20179;SDS011;10249;48.900;9.090;2023-08-06T10:58:53;8.47;;;8.17;;
20179;SDS011;10249;48.900;9.090;2023-08-06T11:01:21;7.90;;;7.70;;
20179;SDS011;10249;48.900;9.090;2023-08-06T11:03:48;7.00;;;6.80;;
20179;SDS011;10249;48.900;9.090;2023-08-06T11:06:16;5.80;;;5.60;;
20179;SDS011;10249;48.900;9.090;2023-08-06T11:08:48;6.33;;;6.13;;
20179;SDS011;10249;48.900;9.090;2023-08-06T11:11:16;5.83;;;5.63;;
20179;SDS011;10249;48.900;9.090;2023-08-06T11:13:43;6.33;;;6.13;;
20179;SDS011;10249;48.900;9.090;2023-08-06T11:16:11;6.10;;;5.90;;
20179;SDS011;10249;48.900;9.090;2023-08-06T11:18:39;6.63;;;6.43;;
20179;SDS011;10249;48.900;9.090;2023-08-06T11:21:07;6.47;;;6.27;;
20179;SDS011;10249;48.900;9.090;2023-08-06T11:23:34;6.90;;;6.70;;
20179;SDS011;10249;48.900;9.090;2023-08-06T11:26:02;7.30;;;7.10;;
20179;SDS011;10249;48.900;9.090;2023-08-06T11:28:29;7.30;;;7.10;;
20179;SDS011;10249;48.900;9.090;2023-08-06T11:30:57;7.00;;;6.80;;
20179;SDS011;10249;48.900;9.090;2023-08-06T11:33:27;7.40;;;7.20;;
20179;SDS011;10249;48.900;9.090;2023-08-06T11:35:55;7.30;;;7.10;;
20179;SDS011;10249;48.900;9.090;2023-08-06T11:38:24;7.17;;;6.97;;
20179;SDS011;10249;48.900;9.090;2023-08-06T11:40:51;6.70;;;6.50;;
20179;SDS011;10249;48.900;9.090;2023-08-06T11:43:20;6.50;;;6.30;;
20179;SDS011;10249;48.900;9.090;2023-08-06T11:45:47;5.97;;;5.77;;
20179;SDS011;10249;48.900;9.090;2023-08-06T11:48:15;6.60;;;6.40;;
20179;SDS011;10249;48.900;9.090;2023-08-06T11:50:43;5.87;;;5.67;;
20179;SDS011;10249;48.900;9.090;2023-08-06T11:53:11;5.83;;;5.63;;
20179;SDS011;10249;48.900;9.090;2023-08-06T11:55:39;5.90;;;5.70;;
20179;SDS011;10249;48.900;9.090;2023-08-06T11:58:06;4.93;;;4.63;;
20179;SDS011;10249;48.900;9.090;2023-08-06T12:00:34;4.60;;;4.50;;
20179;SDS011;10249;48.900;9.090;2023-08-06T12:03:04;4.77;;;4.57;;
20179;SDS011;10249;48.900;9.090;2023-08-06T12:05:31;4.50;;;4.20;;
20179;SDS011;10249;48.900;9.090;2023-08-06T12:07:59;4.33;;;4.13;;
20179;SDS011;10249;48.900;9.090;2023-08-06T12:10:27;4.63;;;4.47;;
20179;SDS011;10249;48.900;9.090;2023-08-06T12:12:54;4.27;;;4.17;;
20179;SDS011;10249;48.900;9.090;2023-08-06T12:15:22;4.00;;;3.90;;
20179;SDS011;10249;48.900;9.090;2023-08-06T12:17:50;3.87;;;3.77;;
20179;SDS011;10249;48.900;9.090;2023-08-06T12:20:17;5.97;;;5.77;;
20179;SDS011;10249;48.900;9.090;2023-08-06T12:22:44;5.40;;;5.20;;
20179;SDS011;10249;48.900;9.090;2023-08-06T12:25:12;4.93;;;4.77;;
20179;SDS011;10249;48.900;9.090;2023-08-06T12:27:39;6.40;;;6.00;;
20179;SDS011;10249;48.900;9.090;2023-08-06T12:30:07;5.70;;;5.50;;
20179;SDS011;10249;48.900;9.090;2023-08-06T12:32:34;6.93;;;6.27;;
20179;SDS011;10249;48.900;9.090;2023-08-06T12:35:02;5.60;;;5.40;;
20179;SDS011;10249;48.900;9.090;2023-08-06T12:37:30;5.13;;;5.03;;
20179;SDS011;10249;48.900;9.090;2023-08-06T12:39:57;5.90;;;5.70;;
20179;SDS011;10249;48.900;9.090;2023-08-06T12:42:24;6.40;;;6.20;;
20179;SDS011;10249;48.900;9.090;2023-08-06T12:44:51;6.67;;;6.47;;
20179;SDS011;10249;48.900;9.090;2023-08-06T12:47:18;7.10;;;6.90;;
20179;SDS011;10249;48.900;9.090;2023-08-06T12:49:46;6.60;;;6.40;;
20179;SDS011;10249;48.900;9.090;2023-08-06T12:52:15;6.90;;;6.70;;
20179;SDS011;10249;48.900;9.090;2023-08-06T12:54:44;7.30;;;7.10;;
20179;SDS011;10249;48.900;9.090;2023-08-06T12:57:11;7.50;;;7.30;;
20179;SDS011;10249;48.900;9.090;2023-08-06T12:59:39;7.87;;;7.57;;
20179;SDS011;10249;48.900;9.090;2023-08-06T13:02:06;8.10;;;7.80;;
20179;SDS011;10249;48.900;9.090;2023-08-06T13:04:33;8.20;;;7.90;;
20179;SDS011;10249;48.900;9.090;2023-08-06T13:07:00;8.00;;;7.80;;
20179;SDS011;10249;48.900;9.090;2023-08-06T13:09:28;8.40;;;8.10;;
20179;SDS011;10249;48.900;9.090;2023-08-06T13:11:55;7.80;;;7.60;;
20179;SDS011;10249;48.900;9.090;2023-08-06T13:14:24;8.00;;;7.70;;
20179;SDS011;10249;48.900;9.090;2023-08-06T13:16:53;7.63;;;7.43;;
20179;SDS011;10249;48.900;9.090;2023-08-06T13:19:20;7.83;;;7.63;;
20179;SDS011;10249;48.900;9.090;2023-08-06T13:21:58;7.80;;;7.50;;
20179;SDS011;10249;48.900;9.090;2023-08-06T13:24:28;8.60;;;8.30;;
20179;SDS011;10249;48.900;9.090;2023-08-06T13:26:55;8.60;;;8.30;;
20179;SDS011;10249;48.900;9.090;2023-08-06T13:29:22;8.87;;;8.57;;
20179;SDS011;10249;48.900;9.090;2023-08-06T13:31:49;9.13;;;8.83;;
20179;SDS011;10249;48.900;9.090;2023-08-06T13:34:16;9.40;;;9.10;;
20179;SDS011;10249;48.900;9.090;2023-08-06T13:36:43;8.70;;;8.40;;
20179;SDS011;10249;48.900;9.090;2023-08-06T13:39:10;8.20;;;7.90;;
20179;SDS011;10249;48.900;9.090;2023-08-06T13:41:39;7.80;;;7.60;;
20179;SDS011;10249;48.900;9.090;2023-08-06T13:44:06;8.50;;;8.20;;
20179;SDS011;10249;48.900;9.090;2023-08-06T13:46:33;8.70;;;8.37;;
20179;SDS011;10249;48.900;9.090;2023-08-06T13:49:00;9.50;;;9.20;;
20179;SDS011;10249;48.900;9.090;2023-08-06T13:51:27;9.40;;;9.10;;
20179;SDS011;10249;48.900;9.090;2023-08-06T13:53:54;8.50;;;8.20;;
20179;SDS011;10249;48.900;9.090;2023-08-06T13:56:22;8.80;;;8.50;;
20179;SDS011;10249;48.900;9.090;2023-08-06T13:58:51;8.60;;;8.30;;
20179;SDS011;10249;48.900;9.090;2023-08-06T14:01:18;8.57;;;8.27;;
20179;SDS011;10249;48.900;9.090;2023-08-06T14:03:45;8.20;;;7.90;;
20179;SDS011;10249;48.900;9.090;2023-08-06T14:06:12;7.80;;;7.60;;
20179;SDS011;10249;48.900;9.090;2023-08-06T14:08:39;6.87;;;6.67;;
20179;SDS011;10249;48.900;9.090;2023-08-06T14:11:06;5.83;;;5.63;;
20179;SDS011;10249;48.900;9.090;2023-08-06T14:13:33;5.67;;;5.47;;
20179;SDS011;10249;48.900;9.090;2023-08-06T14:16:01;4.60;;;4.50;;
20179;SDS011;10249;48.900;9.090;2023-08-06T14:18:28;4.67;;;4.57;;
20179;SDS011;10249;48.900;9.090;2023-08-06T14:20:55;4.50;;;4.40;;
20179;SDS011;10249;48.900;9.090;2023-08-06T14:23:22;4.70;;;4.60;;
20179;SDS011;10249;48.900;9.090;2023-08-06T14:25:49;4.93;;;4.73;;
20179;SDS011;10249;48.900;9.090;2023-08-06T14:28:17;3.90;;;3.80;;
20179;SDS011;10249;48.900;9.090;2023-08-06T14:30:44;4.30;;;4.20;;
20179;SDS011;10249;48.900;9.090;2023-08-06T14:33:12;4.93;;;4.83;;
20179;SDS011;10249;48.900;9.090;2023-08-06T14:35:39;6.53;;;6.33;;
20179;SDS011;10249;48.900;9.090;2023-08-06T14:38:06;6.30;;;6.10;;
20179;SDS011;10249;48.900;9.090;2023-08-06T14:40:33;5.70;;;5.50;;
20179;SDS011;10249;48.900;9.090;2023-08-06T14:43:02;5.60;;;5.40;;
20179;SDS011;10249;48.900;9.090;2023-08-06T14:45:29;5.70;;;5.50;;
20179;SDS011;10249;48.900;9.090;2023-08-06T14:47:57;6.10;;;5.90;;
20179;SDS011;10249;48.900;9.090;2023-08-06T14:50:25;6.93;;;6.63;;
20179;SDS011;10249;48.900;9.090;2023-08-06T14:52:52;7.50;;;7.30;;